<?xml version="1.0" encoding="UTF-8"?><gpx creator="Wikiloc - https://www.wikiloc.com" version="1.1" xmlns="http://www.topografix.com/GPX/1/1" xmlns:xsi="http://www.w3.org/2001/XMLSchema-instance" xsi:schemaLocation="http://www.topografix.com/GPX/1/1 http://www.topografix.com/GPX/1/1/gpx.xsd"><metadata><name>Wikiloc - Spello - Colfiorito</name><author><name>Paoletti Nicola</name><link href="https://www.wikiloc.com/wikiloc/user.do?id=6664281"><text>Paoletti Nicola on Wikiloc</text></link></author><link href="https://www.wikiloc.com/hiking-trails/spello-colfiorito-80577479"><text>Spello - Colfiorito on Wikiloc</text></link><time>2021-08-10T14:19:46Z</time></metadata><trk><name>Spello - Colfiorito</name><cmt></cmt><desc></desc><trkseg><trkpt lat="42.996960" lon="12.671920"><ele>296.213</ele><time>2024-03-04T11:45:35Z</time></trkpt><trkpt lat="42.996246" lon="12.671931"><ele>298.043</ele><time>2024-03-04T11:46:15Z</time></trkpt><trkpt lat="42.995799" lon="12.671591"><ele>300.607</ele><time>2024-03-04T11:46:55Z</time></trkpt><trkpt lat="42.995689" lon="12.671776"><ele>303.008</ele><time>2024-03-04T11:47:35Z</time></trkpt><trkpt lat="42.995660" lon="12.672018"><ele>301.439</ele><time>2024-03-04T11:48:15Z</time></trkpt><trkpt lat="42.995520" lon="12.672121"><ele>299.961</ele><time>2024-03-04T11:48:55Z</time></trkpt><trkpt lat="42.994444" lon="12.672183"><ele>299.396</ele><time>2024-03-04T11:49:35Z</time></trkpt><trkpt lat="42.993041" lon="12.671777"><ele>292.628</ele><time>2024-03-04T11:50:15Z</time></trkpt><trkpt lat="42.992684" lon="12.671239"><ele>291.798</ele><time>2024-03-04T11:50:55Z</time></trkpt><trkpt lat="42.990373" lon="12.671526"><ele>268.055</ele><time>2024-03-04T11:51:35Z</time></trkpt><trkpt lat="42.989678" lon="12.671768"><ele>260.498</ele><time>2024-03-04T11:52:15Z</time></trkpt><trkpt lat="42.989529" lon="12.671907"><ele>259.210</ele><time>2024-03-04T11:52:55Z</time></trkpt><trkpt lat="42.989382" lon="12.672342"><ele>256.713</ele><time>2024-03-04T11:53:35Z</time></trkpt><trkpt lat="42.989444" lon="12.672822"><ele>253.443</ele><time>2024-03-04T11:54:15Z</time></trkpt><trkpt lat="42.989132" lon="12.673052"><ele>247.407</ele><time>2024-03-04T11:54:55Z</time></trkpt><trkpt lat="42.988608" lon="12.672954"><ele>237.708</ele><time>2024-03-04T11:55:35Z</time></trkpt><trkpt lat="42.988176" lon="12.672304"><ele>235.339</ele><time>2024-03-04T11:56:15Z</time></trkpt><trkpt lat="42.988177" lon="12.672543"><ele>234.971</ele><time>2024-03-04T11:56:55Z</time></trkpt><trkpt lat="42.988352" lon="12.672972"><ele>234.536</ele><time>2024-03-04T11:57:35Z</time></trkpt><trkpt lat="42.988793" lon="12.673742"><ele>232.448</ele><time>2024-03-04T11:58:15Z</time></trkpt><trkpt lat="42.988947" lon="12.673840"><ele>232.878</ele><time>2024-03-04T11:58:55Z</time></trkpt><trkpt lat="42.989656" lon="12.673839"><ele>237.265</ele><time>2024-03-04T11:59:35Z</time></trkpt><trkpt lat="42.989742" lon="12.674032"><ele>236.658</ele><time>2024-03-04T12:00:15Z</time></trkpt><trkpt lat="42.989780" lon="12.674519"><ele>236.280</ele><time>2024-03-04T12:00:55Z</time></trkpt><trkpt lat="42.989647" lon="12.674920"><ele>235.469</ele><time>2024-03-04T12:01:35Z</time></trkpt><trkpt lat="42.989702" lon="12.675016"><ele>235.904</ele><time>2024-03-04T12:02:15Z</time></trkpt><trkpt lat="42.989765" lon="12.676282"><ele>236.224</ele><time>2024-03-04T12:02:55Z</time></trkpt><trkpt lat="42.989922" lon="12.676969"><ele>237.108</ele><time>2024-03-04T12:03:35Z</time></trkpt><trkpt lat="42.989916" lon="12.677680"><ele>238.314</ele><time>2024-03-04T12:04:15Z</time></trkpt><trkpt lat="42.990037" lon="12.678142"><ele>239.416</ele><time>2024-03-04T12:04:55Z</time></trkpt><trkpt lat="42.990432" lon="12.678879"><ele>241.921</ele><time>2024-03-04T12:05:35Z</time></trkpt><trkpt lat="42.990816" lon="12.679050"><ele>240.693</ele><time>2024-03-04T12:06:15Z</time></trkpt><trkpt lat="42.991075" lon="12.679351"><ele>242.593</ele><time>2024-03-04T12:06:55Z</time></trkpt><trkpt lat="42.991366" lon="12.679557"><ele>243.950</ele><time>2024-03-04T12:07:35Z</time></trkpt><trkpt lat="42.991515" lon="12.680209"><ele>243.033</ele><time>2024-03-04T12:08:15Z</time></trkpt><trkpt lat="42.991405" lon="12.681261"><ele>243.955</ele><time>2024-03-04T12:08:55Z</time></trkpt><trkpt lat="42.991452" lon="12.681722"><ele>244.482</ele><time>2024-03-04T12:09:35Z</time></trkpt><trkpt lat="42.991452" lon="12.682301"><ele>248.343</ele><time>2024-03-04T12:10:15Z</time></trkpt><trkpt lat="42.991154" lon="12.682398"><ele>247.817</ele><time>2024-03-04T12:10:55Z</time></trkpt><trkpt lat="42.990597" lon="12.684629"><ele>248.908</ele><time>2024-03-04T12:11:35Z</time></trkpt><trkpt lat="42.990707" lon="12.686338"><ele>249.546</ele><time>2024-03-04T12:12:15Z</time></trkpt><trkpt lat="42.990667" lon="12.686947"><ele>250.418</ele><time>2024-03-04T12:12:55Z</time></trkpt><trkpt lat="42.990691" lon="12.687518"><ele>251.073</ele><time>2024-03-04T12:13:35Z</time></trkpt><trkpt lat="42.990714" lon="12.688106"><ele>251.015</ele><time>2024-03-04T12:14:15Z</time></trkpt><trkpt lat="42.990573" lon="12.688771"><ele>250.135</ele><time>2024-03-04T12:14:55Z</time></trkpt><trkpt lat="42.990251" lon="12.689192"><ele>249.122</ele><time>2024-03-04T12:15:35Z</time></trkpt><trkpt lat="42.989961" lon="12.689822"><ele>252.685</ele><time>2024-03-04T12:16:15Z</time></trkpt><trkpt lat="42.989710" lon="12.690305"><ele>255.067</ele><time>2024-03-04T12:16:55Z</time></trkpt><trkpt lat="42.989757" lon="12.690777"><ele>256.246</ele><time>2024-03-04T12:17:35Z</time></trkpt><trkpt lat="42.989718" lon="12.691678"><ele>255.988</ele><time>2024-03-04T12:18:15Z</time></trkpt><trkpt lat="42.989851" lon="12.691882"><ele>256.516</ele><time>2024-03-04T12:18:55Z</time></trkpt><trkpt lat="42.989647" lon="12.692301"><ele>254.908</ele><time>2024-03-04T12:19:35Z</time></trkpt><trkpt lat="42.989710" lon="12.692708"><ele>256.692</ele><time>2024-03-04T12:20:15Z</time></trkpt><trkpt lat="42.989600" lon="12.693599"><ele>252.874</ele><time>2024-03-04T12:20:55Z</time></trkpt><trkpt lat="42.989576" lon="12.694167"><ele>254.979</ele><time>2024-03-04T12:21:35Z</time></trkpt><trkpt lat="42.989624" lon="12.694736"><ele>256.951</ele><time>2024-03-04T12:22:15Z</time></trkpt><trkpt lat="42.989561" lon="12.695144"><ele>256.681</ele><time>2024-03-04T12:22:55Z</time></trkpt><trkpt lat="42.989278" lon="12.695608"><ele>254.288</ele><time>2024-03-04T12:23:35Z</time></trkpt><trkpt lat="42.988917" lon="12.696015"><ele>251.321</ele><time>2024-03-04T12:24:15Z</time></trkpt><trkpt lat="42.988603" lon="12.696595"><ele>250.013</ele><time>2024-03-04T12:24:55Z</time></trkpt><trkpt lat="42.988352" lon="12.696809"><ele>250.919</ele><time>2024-03-04T12:25:35Z</time></trkpt><trkpt lat="42.987913" lon="12.697196"><ele>253.909</ele><time>2024-03-04T12:26:15Z</time></trkpt><trkpt lat="42.987983" lon="12.697901"><ele>254.919</ele><time>2024-03-04T12:26:55Z</time></trkpt><trkpt lat="42.988109" lon="12.698480"><ele>256.408</ele><time>2024-03-04T12:27:35Z</time></trkpt><trkpt lat="42.988446" lon="12.698641"><ele>256.769</ele><time>2024-03-04T12:28:15Z</time></trkpt><trkpt lat="42.988759" lon="12.698890"><ele>257.591</ele><time>2024-03-04T12:28:55Z</time></trkpt><trkpt lat="42.989074" lon="12.699349"><ele>260.716</ele><time>2024-03-04T12:29:35Z</time></trkpt><trkpt lat="42.988776" lon="12.699822"><ele>261.288</ele><time>2024-03-04T12:30:15Z</time></trkpt><trkpt lat="42.988658" lon="12.700047"><ele>261.488</ele><time>2024-03-04T12:30:55Z</time></trkpt><trkpt lat="42.988568" lon="12.700370"><ele>263.765</ele><time>2024-03-04T12:31:35Z</time></trkpt><trkpt lat="42.987952" lon="12.700830"><ele>263.678</ele><time>2024-03-04T12:32:15Z</time></trkpt><trkpt lat="42.987575" lon="12.701238"><ele>264.950</ele><time>2024-03-04T12:32:55Z</time></trkpt><trkpt lat="42.987693" lon="12.701463"><ele>266.737</ele><time>2024-03-04T12:33:35Z</time></trkpt><trkpt lat="42.988153" lon="12.702422"><ele>277.749</ele><time>2024-03-04T12:34:15Z</time></trkpt><trkpt lat="42.988210" lon="12.702904"><ele>281.813</ele><time>2024-03-04T12:34:55Z</time></trkpt><trkpt lat="42.988505" lon="12.703519"><ele>292.208</ele><time>2024-03-04T12:35:35Z</time></trkpt><trkpt lat="42.988480" lon="12.704229"><ele>296.711</ele><time>2024-03-04T12:36:15Z</time></trkpt><trkpt lat="42.988640" lon="12.704661"><ele>302.593</ele><time>2024-03-04T12:36:55Z</time></trkpt><trkpt lat="42.988888" lon="12.705012"><ele>311.248</ele><time>2024-03-04T12:37:35Z</time></trkpt><trkpt lat="42.988936" lon="12.705491"><ele>317.270</ele><time>2024-03-04T12:38:15Z</time></trkpt><trkpt lat="42.989603" lon="12.705295"><ele>323.930</ele><time>2024-03-04T12:38:55Z</time></trkpt><trkpt lat="42.990501" lon="12.704482"><ele>341.517</ele><time>2024-03-04T12:39:35Z</time></trkpt><trkpt lat="42.991081" lon="12.705409"><ele>353.330</ele><time>2024-03-04T12:40:15Z</time></trkpt><trkpt lat="42.991355" lon="12.706562"><ele>365.862</ele><time>2024-03-04T12:40:55Z</time></trkpt><trkpt lat="42.991189" lon="12.706976"><ele>370.212</ele><time>2024-03-04T12:41:35Z</time></trkpt><trkpt lat="42.990892" lon="12.707233"><ele>368.432</ele><time>2024-03-04T12:42:15Z</time></trkpt><trkpt lat="42.990791" lon="12.707950"><ele>373.905</ele><time>2024-03-04T12:42:55Z</time></trkpt><trkpt lat="42.990570" lon="12.708620"><ele>378.408</ele><time>2024-03-04T12:43:35Z</time></trkpt><trkpt lat="42.989946" lon="12.709813"><ele>387.519</ele><time>2024-03-04T12:44:15Z</time></trkpt><trkpt lat="42.989778" lon="12.709900"><ele>387.011</ele><time>2024-03-04T12:44:55Z</time></trkpt><trkpt lat="42.989064" lon="12.709867"><ele>386.156</ele><time>2024-03-04T12:45:35Z</time></trkpt><trkpt lat="42.988586" lon="12.709577"><ele>386.448</ele><time>2024-03-04T12:46:15Z</time></trkpt><trkpt lat="42.988167" lon="12.709124"><ele>380.768</ele><time>2024-03-04T12:46:55Z</time></trkpt><trkpt lat="42.987992" lon="12.709080"><ele>381.675</ele><time>2024-03-04T12:47:35Z</time></trkpt><trkpt lat="42.987684" lon="12.709320"><ele>391.098</ele><time>2024-03-04T12:48:15Z</time></trkpt><trkpt lat="42.987334" lon="12.709395"><ele>395.120</ele><time>2024-03-04T12:48:55Z</time></trkpt><trkpt lat="42.986447" lon="12.709218"><ele>390.319</ele><time>2024-03-04T12:49:35Z</time></trkpt><trkpt lat="42.986000" lon="12.708818"><ele>383.509</ele><time>2024-03-04T12:50:15Z</time></trkpt><trkpt lat="42.985830" lon="12.708865"><ele>383.719</ele><time>2024-03-04T12:50:55Z</time></trkpt><trkpt lat="42.985700" lon="12.710029"><ele>394.508</ele><time>2024-03-04T12:51:35Z</time></trkpt><trkpt lat="42.985606" lon="12.710172"><ele>395.259</ele><time>2024-03-04T12:52:15Z</time></trkpt><trkpt lat="42.985451" lon="12.710098"><ele>393.971</ele><time>2024-03-04T12:52:55Z</time></trkpt><trkpt lat="42.985349" lon="12.709899"><ele>391.486</ele><time>2024-03-04T12:53:35Z</time></trkpt><trkpt lat="42.985185" lon="12.709890"><ele>391.288</ele><time>2024-03-04T12:54:15Z</time></trkpt><trkpt lat="42.985096" lon="12.709928"><ele>391.548</ele><time>2024-03-04T12:54:55Z</time></trkpt><trkpt lat="42.984935" lon="12.710035"><ele>392.255</ele><time>2024-03-04T12:55:35Z</time></trkpt><trkpt lat="42.984763" lon="12.710379"><ele>395.988</ele><time>2024-03-04T12:56:15Z</time></trkpt><trkpt lat="42.984394" lon="12.710652"><ele>397.480</ele><time>2024-03-04T12:56:55Z</time></trkpt><trkpt lat="42.984166" lon="12.710749"><ele>399.772</ele><time>2024-03-04T12:57:35Z</time></trkpt><trkpt lat="42.983891" lon="12.710743"><ele>396.813</ele><time>2024-03-04T12:58:15Z</time></trkpt><trkpt lat="42.983770" lon="12.710813"><ele>396.714</ele><time>2024-03-04T12:58:55Z</time></trkpt><trkpt lat="42.983683" lon="12.710910"><ele>397.608</ele><time>2024-03-04T12:59:35Z</time></trkpt><trkpt lat="42.983382" lon="12.711175"><ele>396.475</ele><time>2024-03-04T13:00:15Z</time></trkpt><trkpt lat="42.983291" lon="12.711237"><ele>395.287</ele><time>2024-03-04T13:00:55Z</time></trkpt><trkpt lat="42.983205" lon="12.711409"><ele>395.452</ele><time>2024-03-04T13:01:35Z</time></trkpt><trkpt lat="42.983126" lon="12.711543"><ele>393.564</ele><time>2024-03-04T13:02:15Z</time></trkpt><trkpt lat="42.983080" lon="12.711771"><ele>392.484</ele><time>2024-03-04T13:02:55Z</time></trkpt><trkpt lat="42.982826" lon="12.712685"><ele>386.751</ele><time>2024-03-04T13:03:35Z</time></trkpt><trkpt lat="42.982475" lon="12.713216"><ele>377.234</ele><time>2024-03-04T13:04:15Z</time></trkpt><trkpt lat="42.982185" lon="12.713508"><ele>368.436</ele><time>2024-03-04T13:04:55Z</time></trkpt><trkpt lat="42.981932" lon="12.713858"><ele>360.853</ele><time>2024-03-04T13:05:35Z</time></trkpt><trkpt lat="42.981638" lon="12.714437"><ele>357.204</ele><time>2024-03-04T13:06:15Z</time></trkpt><trkpt lat="42.981727" lon="12.714650"><ele>357.214</ele><time>2024-03-04T13:06:55Z</time></trkpt><trkpt lat="42.982434" lon="12.715387"><ele>348.108</ele><time>2024-03-04T13:07:35Z</time></trkpt><trkpt lat="42.982714" lon="12.715989"><ele>346.233</ele><time>2024-03-04T13:08:15Z</time></trkpt><trkpt lat="42.983022" lon="12.716209"><ele>348.815</ele><time>2024-03-04T13:08:55Z</time></trkpt><trkpt lat="42.983048" lon="12.716450"><ele>347.630</ele><time>2024-03-04T13:09:35Z</time></trkpt><trkpt lat="42.982878" lon="12.716845"><ele>342.322</ele><time>2024-03-04T13:10:15Z</time></trkpt><trkpt lat="42.983018" lon="12.717801"><ele>342.482</ele><time>2024-03-04T13:10:55Z</time></trkpt><trkpt lat="42.983189" lon="12.718232"><ele>335.149</ele><time>2024-03-04T13:11:35Z</time></trkpt><trkpt lat="42.984083" lon="12.719763"><ele>323.612</ele><time>2024-03-04T13:12:15Z</time></trkpt><trkpt lat="42.984157" lon="12.719965"><ele>322.374</ele><time>2024-03-04T13:12:55Z</time></trkpt><trkpt lat="42.983900" lon="12.719966"><ele>317.656</ele><time>2024-03-04T13:13:35Z</time></trkpt><trkpt lat="42.984465" lon="12.721211"><ele>309.959</ele><time>2024-03-04T13:14:15Z</time></trkpt><trkpt lat="42.984414" lon="12.721406"><ele>305.414</ele><time>2024-03-04T13:14:55Z</time></trkpt><trkpt lat="42.984064" lon="12.721495"><ele>299.108</ele><time>2024-03-04T13:15:35Z</time></trkpt><trkpt lat="42.983531" lon="12.722105"><ele>281.493</ele><time>2024-03-04T13:16:15Z</time></trkpt><trkpt lat="42.983792" lon="12.722423"><ele>280.665</ele><time>2024-03-04T13:16:55Z</time></trkpt><trkpt lat="42.983781" lon="12.722643"><ele>278.670</ele><time>2024-03-04T13:17:35Z</time></trkpt><trkpt lat="42.983597" lon="12.722964"><ele>274.972</ele><time>2024-03-04T13:18:15Z</time></trkpt><trkpt lat="42.983519" lon="12.723092"><ele>272.972</ele><time>2024-03-04T13:18:55Z</time></trkpt><trkpt lat="42.983622" lon="12.723304"><ele>271.499</ele><time>2024-03-04T13:19:35Z</time></trkpt><trkpt lat="42.983810" lon="12.723583"><ele>272.472</ele><time>2024-03-04T13:20:15Z</time></trkpt><trkpt lat="42.983983" lon="12.723900"><ele>275.074</ele><time>2024-03-04T13:20:55Z</time></trkpt><trkpt lat="42.984140" lon="12.724012"><ele>277.699</ele><time>2024-03-04T13:21:35Z</time></trkpt><trkpt lat="42.984222" lon="12.724232"><ele>276.907</ele><time>2024-03-04T13:22:15Z</time></trkpt><trkpt lat="42.984406" lon="12.724425"><ele>276.827</ele><time>2024-03-04T13:22:55Z</time></trkpt><trkpt lat="42.984430" lon="12.724608"><ele>276.208</ele><time>2024-03-04T13:23:35Z</time></trkpt><trkpt lat="42.985023" lon="12.725412"><ele>275.527</ele><time>2024-03-04T13:24:15Z</time></trkpt><trkpt lat="42.985576" lon="12.726212"><ele>280.889</ele><time>2024-03-04T13:24:55Z</time></trkpt><trkpt lat="42.986023" lon="12.727070"><ele>283.214</ele><time>2024-03-04T13:25:35Z</time></trkpt><trkpt lat="42.985869" lon="12.727228"><ele>281.466</ele><time>2024-03-04T13:26:15Z</time></trkpt><trkpt lat="42.985751" lon="12.727373"><ele>281.996</ele><time>2024-03-04T13:26:55Z</time></trkpt><trkpt lat="42.985880" lon="12.727722"><ele>283.993</ele><time>2024-03-04T13:27:35Z</time></trkpt><trkpt lat="42.985951" lon="12.728044"><ele>284.246</ele><time>2024-03-04T13:28:15Z</time></trkpt><trkpt lat="42.985990" lon="12.728285"><ele>283.698</ele><time>2024-03-04T13:28:55Z</time></trkpt><trkpt lat="42.986115" lon="12.728462"><ele>284.733</ele><time>2024-03-04T13:29:35Z</time></trkpt><trkpt lat="42.986461" lon="12.728816"><ele>284.023</ele><time>2024-03-04T13:30:15Z</time></trkpt><trkpt lat="42.986626" lon="12.729015"><ele>282.015</ele><time>2024-03-04T13:30:55Z</time></trkpt><trkpt lat="42.986786" lon="12.729208"><ele>280.608</ele><time>2024-03-04T13:31:35Z</time></trkpt><trkpt lat="42.986888" lon="12.729315"><ele>279.821</ele><time>2024-03-04T13:32:15Z</time></trkpt><trkpt lat="42.986892" lon="12.729481"><ele>278.593</ele><time>2024-03-04T13:32:55Z</time></trkpt><trkpt lat="42.986873" lon="12.729658"><ele>277.068</ele><time>2024-03-04T13:33:35Z</time></trkpt><trkpt lat="42.986790" lon="12.729728"><ele>275.890</ele><time>2024-03-04T13:34:15Z</time></trkpt><trkpt lat="42.986641" lon="12.730130"><ele>271.840</ele><time>2024-03-04T13:34:55Z</time></trkpt><trkpt lat="42.986455" lon="12.730519"><ele>268.367</ele><time>2024-03-04T13:35:35Z</time></trkpt><trkpt lat="42.986086" lon="12.731168"><ele>266.060</ele><time>2024-03-04T13:36:15Z</time></trkpt><trkpt lat="42.984638" lon="12.732125"><ele>261.792</ele><time>2024-03-04T13:36:55Z</time></trkpt><trkpt lat="42.984107" lon="12.732774"><ele>260.857</ele><time>2024-03-04T13:37:35Z</time></trkpt><trkpt lat="42.983836" lon="12.733407"><ele>258.700</ele><time>2024-03-04T13:38:15Z</time></trkpt><trkpt lat="42.983873" lon="12.733615"><ele>259.020</ele><time>2024-03-04T13:38:55Z</time></trkpt><trkpt lat="42.984245" lon="12.734149"><ele>258.108</ele><time>2024-03-04T13:39:35Z</time></trkpt><trkpt lat="42.984407" lon="12.734580"><ele>255.563</ele><time>2024-03-04T13:40:15Z</time></trkpt><trkpt lat="42.983890" lon="12.736390"><ele>260.055</ele><time>2024-03-04T13:40:55Z</time></trkpt><trkpt lat="42.983592" lon="12.739998"><ele>268.040</ele><time>2024-03-04T13:41:35Z</time></trkpt><trkpt lat="42.983631" lon="12.740203"><ele>267.952</ele><time>2024-03-04T13:42:15Z</time></trkpt><trkpt lat="42.984074" lon="12.740536"><ele>268.342</ele><time>2024-03-04T13:42:55Z</time></trkpt><trkpt lat="42.983899" lon="12.742488"><ele>269.199</ele><time>2024-03-04T13:43:35Z</time></trkpt><trkpt lat="42.983883" lon="12.744700"><ele>275.732</ele><time>2024-03-04T13:44:15Z</time></trkpt><trkpt lat="42.983505" lon="12.745805"><ele>272.324</ele><time>2024-03-04T13:44:55Z</time></trkpt><trkpt lat="42.982960" lon="12.748401"><ele>279.317</ele><time>2024-03-04T13:45:35Z</time></trkpt><trkpt lat="42.982949" lon="12.751839"><ele>292.287</ele><time>2024-03-04T13:46:15Z</time></trkpt><trkpt lat="42.983032" lon="12.752313"><ele>295.015</ele><time>2024-03-04T13:46:55Z</time></trkpt><trkpt lat="42.983225" lon="12.752658"><ele>297.708</ele><time>2024-03-04T13:47:35Z</time></trkpt><trkpt lat="42.982850" lon="12.755061"><ele>293.029</ele><time>2024-03-04T13:48:15Z</time></trkpt><trkpt lat="42.982692" lon="12.758003"><ele>289.511</ele><time>2024-03-04T13:48:55Z</time></trkpt><trkpt lat="42.983393" lon="12.760402"><ele>304.726</ele><time>2024-03-04T13:49:35Z</time></trkpt><trkpt lat="42.983660" lon="12.762829"><ele>310.318</ele><time>2024-03-04T13:50:15Z</time></trkpt><trkpt lat="42.983589" lon="12.763306"><ele>313.398</ele><time>2024-03-04T13:50:55Z</time></trkpt><trkpt lat="42.983087" lon="12.764877"><ele>307.755</ele><time>2024-03-04T13:51:35Z</time></trkpt><trkpt lat="42.983001" lon="12.765843"><ele>307.628</ele><time>2024-03-04T13:52:15Z</time></trkpt><trkpt lat="42.982620" lon="12.767209"><ele>304.230</ele><time>2024-03-04T13:52:55Z</time></trkpt><trkpt lat="42.982644" lon="12.768190"><ele>307.315</ele><time>2024-03-04T13:53:35Z</time></trkpt><trkpt lat="42.982726" lon="12.768405"><ele>308.765</ele><time>2024-03-04T13:54:15Z</time></trkpt><trkpt lat="42.983129" lon="12.768892"><ele>316.411</ele><time>2024-03-04T13:54:55Z</time></trkpt><trkpt lat="42.983188" lon="12.769108"><ele>319.908</ele><time>2024-03-04T13:55:35Z</time></trkpt><trkpt lat="42.982984" lon="12.769427"><ele>317.589</ele><time>2024-03-04T13:56:15Z</time></trkpt><trkpt lat="42.983000" lon="12.769669"><ele>322.041</ele><time>2024-03-04T13:56:55Z</time></trkpt><trkpt lat="42.982911" lon="12.769855"><ele>323.316</ele><time>2024-03-04T13:57:35Z</time></trkpt><trkpt lat="42.982991" lon="12.770461"><ele>330.448</ele><time>2024-03-04T13:58:15Z</time></trkpt><trkpt lat="42.982945" lon="12.770699"><ele>332.268</ele><time>2024-03-04T13:58:55Z</time></trkpt><trkpt lat="42.983106" lon="12.770726"><ele>336.245</ele><time>2024-03-04T13:59:35Z</time></trkpt><trkpt lat="42.983158" lon="12.771200"><ele>349.748</ele><time>2024-03-04T14:00:15Z</time></trkpt><trkpt lat="42.982843" lon="12.772025"><ele>376.930</ele><time>2024-03-04T14:00:55Z</time></trkpt><trkpt lat="42.982882" lon="12.772250"><ele>385.298</ele><time>2024-03-04T14:01:35Z</time></trkpt><trkpt lat="42.983215" lon="12.772434"><ele>394.315</ele><time>2024-03-04T14:02:15Z</time></trkpt><trkpt lat="42.983200" lon="12.772595"><ele>399.626</ele><time>2024-03-04T14:02:55Z</time></trkpt><trkpt lat="42.983021" lon="12.772622"><ele>399.408</ele><time>2024-03-04T14:03:35Z</time></trkpt><trkpt lat="42.983099" lon="12.772729"><ele>403.787</ele><time>2024-03-04T14:04:15Z</time></trkpt><trkpt lat="42.983278" lon="12.772754"><ele>406.559</ele><time>2024-03-04T14:04:55Z</time></trkpt><trkpt lat="42.983258" lon="12.773305"><ele>418.514</ele><time>2024-03-04T14:05:35Z</time></trkpt><trkpt lat="42.983374" lon="12.773714"><ele>429.326</ele><time>2024-03-04T14:06:15Z</time></trkpt><trkpt lat="42.983236" lon="12.773850"><ele>434.926</ele><time>2024-03-04T14:06:55Z</time></trkpt><trkpt lat="42.983163" lon="12.774232"><ele>453.793</ele><time>2024-03-04T14:07:35Z</time></trkpt><trkpt lat="42.983381" lon="12.774047"><ele>445.096</ele><time>2024-03-04T14:08:15Z</time></trkpt><trkpt lat="42.983416" lon="12.774497"><ele>462.868</ele><time>2024-03-04T14:08:55Z</time></trkpt><trkpt lat="42.983306" lon="12.774941"><ele>470.186</ele><time>2024-03-04T14:09:35Z</time></trkpt><trkpt lat="42.983372" lon="12.775385"><ele>476.660</ele><time>2024-03-04T14:10:15Z</time></trkpt><trkpt lat="42.983676" lon="12.775562"><ele>487.626</ele><time>2024-03-04T14:10:55Z</time></trkpt><trkpt lat="42.983736" lon="12.775784"><ele>492.408</ele><time>2024-03-04T14:11:35Z</time></trkpt><trkpt lat="42.983715" lon="12.777006"><ele>499.926</ele><time>2024-03-04T14:12:15Z</time></trkpt><trkpt lat="42.982743" lon="12.778759"><ele>499.658</ele><time>2024-03-04T14:12:55Z</time></trkpt><trkpt lat="42.982431" lon="12.779908"><ele>501.953</ele><time>2024-03-04T14:13:35Z</time></trkpt><trkpt lat="42.982341" lon="12.780830"><ele>500.455</ele><time>2024-03-04T14:14:15Z</time></trkpt><trkpt lat="42.981816" lon="12.782117"><ele>497.135</ele><time>2024-03-04T14:14:55Z</time></trkpt><trkpt lat="42.981538" lon="12.783024"><ele>496.162</ele><time>2024-03-04T14:15:35Z</time></trkpt><trkpt lat="42.981340" lon="12.783397"><ele>492.945</ele><time>2024-03-04T14:16:15Z</time></trkpt><trkpt lat="42.981431" lon="12.783803"><ele>494.187</ele><time>2024-03-04T14:16:55Z</time></trkpt><trkpt lat="42.980973" lon="12.784831"><ele>496.544</ele><time>2024-03-04T14:17:35Z</time></trkpt><trkpt lat="42.982274" lon="12.785619"><ele>509.505</ele><time>2024-03-04T14:18:15Z</time></trkpt><trkpt lat="42.982389" lon="12.785530"><ele>512.115</ele><time>2024-03-04T14:18:55Z</time></trkpt><trkpt lat="42.982456" lon="12.785056"><ele>512.608</ele><time>2024-03-04T14:19:35Z</time></trkpt><trkpt lat="42.982352" lon="12.783354"><ele>518.672</ele><time>2024-03-04T14:20:15Z</time></trkpt><trkpt lat="42.982485" lon="12.783224"><ele>523.124</ele><time>2024-03-04T14:20:55Z</time></trkpt><trkpt lat="42.982633" lon="12.783349"><ele>528.849</ele><time>2024-03-04T14:21:35Z</time></trkpt><trkpt lat="42.983051" lon="12.784432"><ele>537.031</ele><time>2024-03-04T14:22:15Z</time></trkpt><trkpt lat="42.983373" lon="12.785011"><ele>544.531</ele><time>2024-03-04T14:22:55Z</time></trkpt><trkpt lat="42.983469" lon="12.785983"><ele>548.598</ele><time>2024-03-04T14:23:35Z</time></trkpt><trkpt lat="42.983754" lon="12.786881"><ele>549.541</ele><time>2024-03-04T14:24:15Z</time></trkpt><trkpt lat="42.983883" lon="12.789084"><ele>565.113</ele><time>2024-03-04T14:24:55Z</time></trkpt><trkpt lat="42.984307" lon="12.790697"><ele>574.115</ele><time>2024-03-04T14:25:35Z</time></trkpt><trkpt lat="42.984526" lon="12.791085"><ele>578.565</ele><time>2024-03-04T14:26:15Z</time></trkpt><trkpt lat="42.985743" lon="12.792541"><ele>593.611</ele><time>2024-03-04T14:26:55Z</time></trkpt><trkpt lat="42.986154" lon="12.793340"><ele>600.108</ele><time>2024-03-04T14:27:35Z</time></trkpt><trkpt lat="42.987117" lon="12.794447"><ele>614.899</ele><time>2024-03-04T14:28:15Z</time></trkpt><trkpt lat="42.988718" lon="12.796025"><ele>636.381</ele><time>2024-03-04T14:28:55Z</time></trkpt><trkpt lat="42.989990" lon="12.796937"><ele>658.946</ele><time>2024-03-04T14:29:35Z</time></trkpt><trkpt lat="42.990982" lon="12.797503"><ele>660.638</ele><time>2024-03-04T14:30:15Z</time></trkpt><trkpt lat="42.991110" lon="12.798426"><ele>666.328</ele><time>2024-03-04T14:30:55Z</time></trkpt><trkpt lat="42.991047" lon="12.798656"><ele>669.595</ele><time>2024-03-04T14:31:35Z</time></trkpt><trkpt lat="42.991102" lon="12.799129"><ele>678.228</ele><time>2024-03-04T14:32:15Z</time></trkpt><trkpt lat="42.991966" lon="12.802346"><ele>715.090</ele><time>2024-03-04T14:32:55Z</time></trkpt><trkpt lat="42.992009" lon="12.802833"><ele>718.732</ele><time>2024-03-04T14:33:35Z</time></trkpt><trkpt lat="42.991956" lon="12.804058"><ele>721.792</ele><time>2024-03-04T14:34:15Z</time></trkpt><trkpt lat="42.991797" lon="12.804489"><ele>718.311</ele><time>2024-03-04T14:34:55Z</time></trkpt><trkpt lat="42.991509" lon="12.804783"><ele>718.308</ele><time>2024-03-04T14:35:35Z</time></trkpt><trkpt lat="42.990522" lon="12.805376"><ele>721.781</ele><time>2024-03-04T14:36:15Z</time></trkpt><trkpt lat="42.988431" lon="12.806101"><ele>732.663</ele><time>2024-03-04T14:36:55Z</time></trkpt><trkpt lat="42.987455" lon="12.806716"><ele>747.768</ele><time>2024-03-04T14:37:35Z</time></trkpt><trkpt lat="42.986591" lon="12.807024"><ele>745.110</ele><time>2024-03-04T14:38:15Z</time></trkpt><trkpt lat="42.986237" lon="12.807018"><ele>742.190</ele><time>2024-03-04T14:38:55Z</time></trkpt><trkpt lat="42.985565" lon="12.806684"><ele>743.027</ele><time>2024-03-04T14:39:35Z</time></trkpt><trkpt lat="42.985406" lon="12.806751"><ele>743.670</ele><time>2024-03-04T14:40:15Z</time></trkpt><trkpt lat="42.985255" lon="12.807192"><ele>742.482</ele><time>2024-03-04T14:40:55Z</time></trkpt><trkpt lat="42.984918" lon="12.807764"><ele>747.619</ele><time>2024-03-04T14:41:35Z</time></trkpt><trkpt lat="42.984523" lon="12.808266"><ele>749.309</ele><time>2024-03-04T14:42:15Z</time></trkpt><trkpt lat="42.984357" lon="12.808350"><ele>748.319</ele><time>2024-03-04T14:42:55Z</time></trkpt><trkpt lat="42.982659" lon="12.807563"><ele>736.208</ele><time>2024-03-04T14:43:35Z</time></trkpt><trkpt lat="42.982321" lon="12.807672"><ele>735.049</ele><time>2024-03-04T14:44:15Z</time></trkpt><trkpt lat="42.981939" lon="12.808188"><ele>734.081</ele><time>2024-03-04T14:44:55Z</time></trkpt><trkpt lat="42.981758" lon="12.808613"><ele>736.076</ele><time>2024-03-04T14:45:35Z</time></trkpt><trkpt lat="42.981622" lon="12.809321"><ele>740.058</ele><time>2024-03-04T14:46:15Z</time></trkpt><trkpt lat="42.981627" lon="12.809806"><ele>742.438</ele><time>2024-03-04T14:46:55Z</time></trkpt><trkpt lat="42.981842" lon="12.810196"><ele>743.485</ele><time>2024-03-04T14:47:35Z</time></trkpt><trkpt lat="42.982302" lon="12.811528"><ele>751.188</ele><time>2024-03-04T14:48:15Z</time></trkpt><trkpt lat="42.982601" lon="12.812944"><ele>749.530</ele><time>2024-03-04T14:48:55Z</time></trkpt><trkpt lat="42.982707" lon="12.813137"><ele>748.859</ele><time>2024-03-04T14:49:35Z</time></trkpt><trkpt lat="42.983195" lon="12.813426"><ele>743.303</ele><time>2024-03-04T14:50:15Z</time></trkpt><trkpt lat="42.983501" lon="12.814291"><ele>754.323</ele><time>2024-03-04T14:50:55Z</time></trkpt><trkpt lat="42.983995" lon="12.814461"><ele>747.508</ele><time>2024-03-04T14:51:35Z</time></trkpt><trkpt lat="42.984247" lon="12.814804"><ele>758.073</ele><time>2024-03-04T14:52:15Z</time></trkpt><trkpt lat="42.984402" lon="12.814818"><ele>757.185</ele><time>2024-03-04T14:52:55Z</time></trkpt><trkpt lat="42.984700" lon="12.814547"><ele>747.960</ele><time>2024-03-04T14:53:35Z</time></trkpt><trkpt lat="42.984874" lon="12.814566"><ele>748.382</ele><time>2024-03-04T14:54:15Z</time></trkpt><trkpt lat="42.985184" lon="12.814814"><ele>751.332</ele><time>2024-03-04T14:54:55Z</time></trkpt><trkpt lat="42.985824" lon="12.815671"><ele>764.169</ele><time>2024-03-04T14:55:35Z</time></trkpt><trkpt lat="42.986333" lon="12.816673"><ele>771.892</ele><time>2024-03-04T14:56:15Z</time></trkpt><trkpt lat="42.986846" lon="12.816839"><ele>767.234</ele><time>2024-03-04T14:56:55Z</time></trkpt><trkpt lat="42.987465" lon="12.817330"><ele>771.193</ele><time>2024-03-04T14:57:35Z</time></trkpt><trkpt lat="42.988631" lon="12.818863"><ele>779.565</ele><time>2024-03-04T14:58:15Z</time></trkpt><trkpt lat="42.989163" lon="12.819845"><ele>784.621</ele><time>2024-03-04T14:58:55Z</time></trkpt><trkpt lat="42.991262" lon="12.822156"><ele>796.308</ele><time>2024-03-04T14:59:35Z</time></trkpt><trkpt lat="42.991783" lon="12.822311"><ele>801.597</ele><time>2024-03-04T15:00:15Z</time></trkpt><trkpt lat="42.992433" lon="12.822723"><ele>802.369</ele><time>2024-03-04T15:00:55Z</time></trkpt><trkpt lat="42.992832" lon="12.823526"><ele>805.664</ele><time>2024-03-04T15:01:35Z</time></trkpt><trkpt lat="42.993981" lon="12.824706"><ele>814.946</ele><time>2024-03-04T15:02:15Z</time></trkpt><trkpt lat="42.995394" lon="12.825017"><ele>822.766</ele><time>2024-03-04T15:02:55Z</time></trkpt><trkpt lat="42.995502" lon="12.825177"><ele>822.933</ele><time>2024-03-04T15:03:35Z</time></trkpt><trkpt lat="42.996567" lon="12.828560"><ele>799.786</ele><time>2024-03-04T15:04:15Z</time></trkpt><trkpt lat="42.997360" lon="12.829878"><ele>795.258</ele><time>2024-03-04T15:04:55Z</time></trkpt><trkpt lat="42.997761" lon="12.830361"><ele>794.889</ele><time>2024-03-04T15:05:35Z</time></trkpt><trkpt lat="42.998237" lon="12.830697"><ele>801.606</ele><time>2024-03-04T15:06:15Z</time></trkpt><trkpt lat="42.998620" lon="12.831495"><ele>799.126</ele><time>2024-03-04T15:06:55Z</time></trkpt><trkpt lat="42.998785" lon="12.831570"><ele>802.708</ele><time>2024-03-04T15:07:35Z</time></trkpt><trkpt lat="42.999067" lon="12.831289"><ele>813.926</ele><time>2024-03-04T15:08:15Z</time></trkpt><trkpt lat="42.999415" lon="12.830740"><ele>827.368</ele><time>2024-03-04T15:08:55Z</time></trkpt><trkpt lat="42.999369" lon="12.830637"><ele>830.043</ele><time>2024-03-04T15:09:35Z</time></trkpt><trkpt lat="42.998947" lon="12.831020"><ele>819.765</ele><time>2024-03-04T15:10:15Z</time></trkpt><trkpt lat="42.999280" lon="12.830489"><ele>834.275</ele><time>2024-03-04T15:10:55Z</time></trkpt><trkpt lat="42.999749" lon="12.830150"><ele>839.432</ele><time>2024-03-04T15:11:35Z</time></trkpt><trkpt lat="42.999864" lon="12.830308"><ele>840.385</ele><time>2024-03-04T15:12:15Z</time></trkpt><trkpt lat="43.000010" lon="12.831018"><ele>840.627</ele><time>2024-03-04T15:12:55Z</time></trkpt><trkpt lat="43.000181" lon="12.831448"><ele>842.929</ele><time>2024-03-04T15:13:35Z</time></trkpt><trkpt lat="43.001242" lon="12.832762"><ele>854.400</ele><time>2024-03-04T15:14:15Z</time></trkpt><trkpt lat="43.001555" lon="12.833354"><ele>856.320</ele><time>2024-03-04T15:14:55Z</time></trkpt><trkpt lat="43.001576" lon="12.833833"><ele>854.108</ele><time>2024-03-04T15:15:35Z</time></trkpt><trkpt lat="43.001309" lon="12.834746"><ele>856.650</ele><time>2024-03-04T15:16:15Z</time></trkpt><trkpt lat="43.001252" lon="12.835477"><ele>862.942</ele><time>2024-03-04T15:16:55Z</time></trkpt><trkpt lat="43.001556" lon="12.837141"><ele>862.287</ele><time>2024-03-04T15:17:35Z</time></trkpt><trkpt lat="43.001435" lon="12.839097"><ele>856.579</ele><time>2024-03-04T15:18:15Z</time></trkpt><trkpt lat="43.001494" lon="12.839220"><ele>855.949</ele><time>2024-03-04T15:18:55Z</time></trkpt><trkpt lat="43.002727" lon="12.838924"><ele>849.416</ele><time>2024-03-04T15:19:35Z</time></trkpt><trkpt lat="43.004695" lon="12.839192"><ele>843.839</ele><time>2024-03-04T15:20:15Z</time></trkpt><trkpt lat="43.005411" lon="12.839175"><ele>840.081</ele><time>2024-03-04T15:20:55Z</time></trkpt><trkpt lat="43.005742" lon="12.838996"><ele>836.648</ele><time>2024-03-04T15:21:35Z</time></trkpt><trkpt lat="43.006191" lon="12.838587"><ele>832.861</ele><time>2024-03-04T15:22:15Z</time></trkpt><trkpt lat="43.006692" lon="12.837896"><ele>825.217</ele><time>2024-03-04T15:22:55Z</time></trkpt><trkpt lat="43.007711" lon="12.836900"><ele>820.208</ele><time>2024-03-04T15:23:35Z</time></trkpt><trkpt lat="43.008009" lon="12.837689"><ele>813.952</ele><time>2024-03-04T15:24:15Z</time></trkpt><trkpt lat="43.008319" lon="12.837939"><ele>812.024</ele><time>2024-03-04T15:24:55Z</time></trkpt><trkpt lat="43.008840" lon="12.838605"><ele>812.149</ele><time>2024-03-04T15:25:35Z</time></trkpt><trkpt lat="43.009510" lon="12.838960"><ele>821.651</ele><time>2024-03-04T15:26:15Z</time></trkpt><trkpt lat="43.009735" lon="12.839872"><ele>813.181</ele><time>2024-03-04T15:26:55Z</time></trkpt><trkpt lat="43.010110" lon="12.840393"><ele>813.438</ele><time>2024-03-04T15:27:35Z</time></trkpt><trkpt lat="43.010623" lon="12.840586"><ele>814.711</ele><time>2024-03-04T15:28:15Z</time></trkpt><trkpt lat="43.011589" lon="12.841231"><ele>806.923</ele><time>2024-03-04T15:28:55Z</time></trkpt><trkpt lat="43.012298" lon="12.841396"><ele>809.721</ele><time>2024-03-04T15:29:35Z</time></trkpt><trkpt lat="43.013186" lon="12.841305"><ele>811.141</ele><time>2024-03-04T15:30:15Z</time></trkpt><trkpt lat="43.014026" lon="12.841718"><ele>808.705</ele><time>2024-03-04T15:30:55Z</time></trkpt><trkpt lat="43.014833" lon="12.842258"><ele>816.308</ele><time>2024-03-04T15:31:35Z</time></trkpt><trkpt lat="43.016922" lon="12.842953"><ele>844.210</ele><time>2024-03-04T15:32:15Z</time></trkpt><trkpt lat="43.017274" lon="12.842893"><ele>849.312</ele><time>2024-03-04T15:32:55Z</time></trkpt><trkpt lat="43.018054" lon="12.842294"><ele>856.717</ele><time>2024-03-04T15:33:35Z</time></trkpt><trkpt lat="43.018000" lon="12.843442"><ele>862.199</ele><time>2024-03-04T15:34:15Z</time></trkpt><trkpt lat="43.017853" lon="12.844149"><ele>869.139</ele><time>2024-03-04T15:34:55Z</time></trkpt><trkpt lat="43.017544" lon="12.845030"><ele>874.716</ele><time>2024-03-04T15:35:35Z</time></trkpt><trkpt lat="43.017294" lon="12.845383"><ele>873.639</ele><time>2024-03-04T15:36:15Z</time></trkpt><trkpt lat="43.016966" lon="12.846224"><ele>883.951</ele><time>2024-03-04T15:36:55Z</time></trkpt><trkpt lat="43.016986" lon="12.846956"><ele>887.636</ele><time>2024-03-04T15:37:35Z</time></trkpt><trkpt lat="43.017224" lon="12.847883"><ele>890.317</ele><time>2024-03-04T15:38:15Z</time></trkpt><trkpt lat="43.018014" lon="12.849813"><ele>890.218</ele><time>2024-03-04T15:38:55Z</time></trkpt><trkpt lat="43.019293" lon="12.851127"><ele>887.808</ele><time>2024-03-04T15:39:35Z</time></trkpt><trkpt lat="43.019411" lon="12.851309"><ele>887.681</ele><time>2024-03-04T15:40:15Z</time></trkpt><trkpt lat="43.019520" lon="12.851770"><ele>881.363</ele><time>2024-03-04T15:40:55Z</time></trkpt><trkpt lat="43.019642" lon="12.851942"><ele>881.758</ele><time>2024-03-04T15:41:35Z</time></trkpt><trkpt lat="43.019975" lon="12.852118"><ele>884.680</ele><time>2024-03-04T15:42:15Z</time></trkpt><trkpt lat="43.020082" lon="12.852314"><ele>882.080</ele><time>2024-03-04T15:42:55Z</time></trkpt><trkpt lat="43.020309" lon="12.852982"><ele>873.027</ele><time>2024-03-04T15:43:35Z</time></trkpt><trkpt lat="43.020424" lon="12.853949"><ele>859.210</ele><time>2024-03-04T15:44:15Z</time></trkpt><trkpt lat="43.020576" lon="12.854388"><ele>857.822</ele><time>2024-03-04T15:44:55Z</time></trkpt><trkpt lat="43.020706" lon="12.854555"><ele>856.977</ele><time>2024-03-04T15:45:35Z</time></trkpt><trkpt lat="43.021846" lon="12.855276"><ele>851.061</ele><time>2024-03-04T15:46:15Z</time></trkpt><trkpt lat="43.022201" lon="12.855241"><ele>854.527</ele><time>2024-03-04T15:46:55Z</time></trkpt><trkpt lat="43.022616" lon="12.855702"><ele>859.808</ele><time>2024-03-04T15:47:35Z</time></trkpt><trkpt lat="43.022670" lon="12.856171"><ele>859.725</ele><time>2024-03-04T15:48:15Z</time></trkpt><trkpt lat="43.022565" lon="12.856641"><ele>852.687</ele><time>2024-03-04T15:48:55Z</time></trkpt><trkpt lat="43.022607" lon="12.857117"><ele>855.092</ele><time>2024-03-04T15:49:35Z</time></trkpt><trkpt lat="43.022798" lon="12.857532"><ele>859.224</ele><time>2024-03-04T15:50:15Z</time></trkpt><trkpt lat="43.023184" lon="12.858047"><ele>861.014</ele><time>2024-03-04T15:50:55Z</time></trkpt><trkpt lat="43.024092" lon="12.858836"><ele>857.971</ele><time>2024-03-04T15:51:35Z</time></trkpt><trkpt lat="43.024261" lon="12.858917"><ele>857.314</ele><time>2024-03-04T15:52:15Z</time></trkpt><trkpt lat="43.025143" lon="12.858825"><ele>853.386</ele><time>2024-03-04T15:52:55Z</time></trkpt><trkpt lat="43.025808" lon="12.859130"><ele>849.627</ele><time>2024-03-04T15:53:35Z</time></trkpt><trkpt lat="43.026248" lon="12.859515"><ele>848.768</ele><time>2024-03-04T15:54:15Z</time></trkpt><trkpt lat="43.026296" lon="12.860233"><ele>848.614</ele><time>2024-03-04T15:54:55Z</time></trkpt><trkpt lat="43.025790" lon="12.860885"><ele>848.108</ele><time>2024-03-04T15:55:35Z</time></trkpt><trkpt lat="43.025803" lon="12.861130"><ele>848.640</ele><time>2024-03-04T15:56:15Z</time></trkpt><trkpt lat="43.026379" lon="12.862375"><ele>847.342</ele><time>2024-03-04T15:56:55Z</time></trkpt><trkpt lat="43.026724" lon="12.862932"><ele>844.877</ele><time>2024-03-04T15:57:35Z</time></trkpt><trkpt lat="43.027182" lon="12.863319"><ele>844.099</ele><time>2024-03-04T15:58:15Z</time></trkpt><trkpt lat="43.027361" lon="12.863346"><ele>843.919</ele><time>2024-03-04T15:58:55Z</time></trkpt><trkpt lat="43.027739" lon="12.862856"><ele>851.046</ele><time>2024-03-04T15:59:35Z</time></trkpt><trkpt lat="43.027841" lon="12.862917"><ele>849.959</ele><time>2024-03-04T16:00:15Z</time></trkpt><trkpt lat="43.027961" lon="12.863379"><ele>844.961</ele><time>2024-03-04T16:00:55Z</time></trkpt><trkpt lat="43.027996" lon="12.865340"><ele>829.991</ele><time>2024-03-04T16:01:35Z</time></trkpt><trkpt lat="43.027480" lon="12.865959"><ele>814.081</ele><time>2024-03-04T16:02:15Z</time></trkpt><trkpt lat="43.027567" lon="12.866424"><ele>813.919</ele><time>2024-03-04T16:02:55Z</time></trkpt><trkpt lat="43.027844" lon="12.867057"><ele>812.208</ele><time>2024-03-04T16:03:35Z</time></trkpt><trkpt lat="43.028315" lon="12.868784"><ele>791.687</ele><time>2024-03-04T16:04:15Z</time></trkpt><trkpt lat="43.028140" lon="12.868750"><ele>789.489</ele><time>2024-03-04T16:04:55Z</time></trkpt><trkpt lat="43.027734" lon="12.868285"><ele>787.714</ele><time>2024-03-04T16:05:35Z</time></trkpt><trkpt lat="43.027595" lon="12.868265"><ele>785.136</ele><time>2024-03-04T16:06:15Z</time></trkpt><trkpt lat="43.027806" lon="12.869198"><ele>776.556</ele><time>2024-03-04T16:06:55Z</time></trkpt><trkpt lat="43.028687" lon="12.871892"><ele>761.523</ele><time>2024-03-04T16:07:35Z</time></trkpt><trkpt lat="43.029487" lon="12.872852"><ele>758.726</ele><time>2024-03-04T16:08:15Z</time></trkpt><trkpt lat="43.029855" lon="12.873696"><ele>756.648</ele><time>2024-03-04T16:08:55Z</time></trkpt><trkpt lat="43.030125" lon="12.874604"><ele>756.793</ele><time>2024-03-04T16:09:35Z</time></trkpt><trkpt lat="43.030070" lon="12.876062"><ele>759.365</ele><time>2024-03-04T16:10:15Z</time></trkpt><trkpt lat="43.029624" lon="12.876827"><ele>758.421</ele><time>2024-03-04T16:10:55Z</time></trkpt><trkpt lat="43.029166" lon="12.877215"><ele>758.008</ele><time>2024-03-04T16:11:35Z</time></trkpt><trkpt lat="43.028475" lon="12.877456"><ele>756.017</ele><time>2024-03-04T16:12:15Z</time></trkpt><trkpt lat="43.027918" lon="12.878064"><ele>757.049</ele><time>2024-03-04T16:12:55Z</time></trkpt><trkpt lat="43.026733" lon="12.878634"><ele>758.254</ele><time>2024-03-04T16:13:35Z</time></trkpt><trkpt lat="43.025334" lon="12.880533"><ele>761.656</ele><time>2024-03-04T16:14:15Z</time></trkpt><trkpt lat="43.025223" lon="12.880723"><ele>761.076</ele><time>2024-03-04T16:14:55Z</time></trkpt><trkpt lat="43.025200" lon="12.880965"><ele>761.983</ele><time>2024-03-04T16:15:35Z</time></trkpt><trkpt lat="43.025570" lon="12.882058"><ele>769.126</ele><time>2024-03-04T16:16:15Z</time></trkpt><trkpt lat="43.025485" lon="12.883024"><ele>763.138</ele><time>2024-03-04T16:16:55Z</time></trkpt><trkpt lat="43.025283" lon="12.883707"><ele>758.516</ele><time>2024-03-04T16:17:35Z</time></trkpt><trkpt lat="43.025073" lon="12.884092"><ele>757.776</ele><time>2024-03-04T16:18:15Z</time></trkpt><trkpt lat="43.024536" lon="12.884144"><ele>758.413</ele><time>2024-03-04T16:18:55Z</time></trkpt><trkpt lat="43.024419" lon="12.884276"><ele>758.808</ele><time>2024-03-04T16:19:35Z</time></trkpt><trkpt lat="43.024398" lon="12.885747"><ele>761.519</ele><time>2024-03-04T16:20:15Z</time></trkpt><trkpt lat="43.024515" lon="12.886467"><ele>762.071</ele><time>2024-03-04T16:20:55Z</time></trkpt><trkpt lat="43.024723" lon="12.887147"><ele>764.426</ele><time>2024-03-04T16:21:35Z</time></trkpt><trkpt lat="43.025422" lon="12.888578"><ele>761.328</ele><time>2024-03-04T16:22:15Z</time></trkpt><trkpt lat="43.025826" lon="12.889636"><ele>767.968</ele><time>2024-03-04T16:22:55Z</time></trkpt><trkpt lat="43.026837" lon="12.890632"><ele>772.555</ele><time>2024-03-04T16:23:35Z</time></trkpt><trkpt lat="43.026820" lon="12.890710"><ele>773.758</ele><time>2024-03-04T16:24:15Z</time></trkpt></trkseg></trk></gpx>